Terminal Aerodrome Forecast
Issued by NWS

Home | Current Version | Previous Version | Text Only | Print | Product List | Glossary On
Versions: 1 2 3 4 5 6 7 8 9 10 11 12 13 14 15 16
000
FTUS46 KSEW 231120
TAFOLM
TAF
KOLM 231120Z 2312/2412 19003KT P6SM BKN035
     FM231600 VRB03KT P6SM SCT018 BKN030
     FM232000 34005KT P6SM SCT030 BKN040
     FM240200 35005KT P6SM SCT040=

USA.gov is the U.S. government's official web portal to all federal, state and local government web resources and services.